Time;durP1;ratioP1;P1;durP2;ratioP2;P2;SDS_P1;SDS_P2;PMS_P1;PMS_P2;Temp;Humidity;BMP_temperature;BMP_pressure;BME280_temperature;BME280_humidity;BME280_pressure;Samples;Min_cycle;Max_cycle;Signal;HPM_P1;HPM_P2
2022/05/25 00:01:12;;;;;;;0.00;0.00;;;;;;;;;;5090208;28;20073;-60
2022/05/25 00:03:37;;;;;;;0.00;0.00;;;;;;;;;;5091487;28;20016;-58
2022/05/25 00:06:04;;;;;;;0.00;0.00;;;;;;;;;;5089432;28;20028;-58
2022/05/25 00:08:30;;;;;;;0.00;0.00;;;;;;;;;;5092411;28;20040;-59
2022/05/25 00:10:55;;;;;;;0.00;0.00;;;;;;;;;;5091211;28;20119;-60
2022/05/25 00:13:20;;;;;;;0.00;0.00;;;;;;;;;;5090966;28;20051;-59
2022/05/25 00:15:46;;;;;;;0.00;0.00;;;;;;;;;;5090768;28;20020;-59
2022/05/25 00:18:11;;;;;;;0.00;0.00;;;;;;;;;;5091341;28;20019;-59
2022/05/25 00:20:37;;;;;;;0.00;0.00;;;;;;;;;;5091640;28;20114;-58
2022/05/25 00:23:03;;;;;;;0.00;0.00;;;;;;;;;;5091059;28;20058;-59
2022/05/25 00:25:30;;;;;;;0.00;0.00;;;;;;;;;;5087611;28;20040;-59
2022/05/25 00:27:56;;;;;;;0.00;0.00;;;;;;;;;;5091785;28;20510;-59
2022/05/25 00:30:21;;;;;;;0.00;0.00;;;;;;;;;;5089808;28;20047;-58
2022/05/25 00:32:46;;;;;;;0.00;0.00;;;;;;;;;;5090642;28;20016;-58
2022/05/25 00:35:13;;;;;;;0.00;0.00;;;;;;;;;;5089403;28;20411;-58
2022/05/25 00:37:39;;;;;;;0.00;0.00;;;;;;;;;;5091173;28;20123;-58
2022/05/25 00:40:05;;;;;;;0.00;0.00;;;;;;;;;;5091237;28;20099;-58
2022/05/25 00:42:31;;;;;;;0.00;0.00;;;;;;;;;;5066742;28;20028;-58
2022/05/25 00:44:56;;;;;;;0.00;0.00;;;;;;;;;;5089273;28;20024;-58
2022/05/25 00:47:23;;;;;;;0.00;0.00;;;;;;;;;;5090647;28;20012;-58
2022/05/25 00:49:49;;;;;;;0.00;0.00;;;;;;;;;;5090471;28;20429;-59
2022/05/25 00:52:15;;;;;;;0.00;0.00;;;;;;;;;;5090601;28;20034;-59
2022/05/25 00:54:51;;;;;;;0.00;0.00;;;;;;;;;;5089267;28;20099;-59
2022/05/25 00:57:23;;;;;;;0.00;0.00;;;;;;;;;;5089550;28;20032;-58
2022/05/25 00:59:55;;;;;;;0.00;0.00;;;;;;;;;;5093043;28;20044;-59
2022/05/25 01:02:20;;;;;;;0.00;0.00;;;;;;;;;;5089368;28;20173;-59
2022/05/25 01:04:47;;;;;;;0.00;0.00;;;;;;;;;;5090518;28;20048;-58
2022/05/25 01:07:21;;;;;;;0.00;0.00;;;;;;;;;;5089868;28;20055;-59
2022/05/25 01:09:52;;;;;;;0.00;0.00;;;;;;;;;;5091590;28;20377;-59
2022/05/25 01:12:26;;;;;;;0.00;0.00;;;;;;;;;;5090085;28;20023;-60
2022/05/25 01:14:54;;;;;;;0.00;0.00;;;;;;;;;;5088831;28;20115;-59
2022/05/25 01:17:38;;;;;;;0.00;0.00;;;;;;;;;;5088624;28;20032;-58
2022/05/25 01:20:07;;;;;;;0.00;0.00;;;;;;;;;;5090156;28;20516;-58
2022/05/25 01:22:47;;;;;;;0.00;0.00;;;;;;;;;;5089781;28;20082;-59
2022/05/25 01:25:22;;;;;;;0.00;0.00;;;;;;;;;;5089636;28;20023;-58
2022/05/25 01:27:49;;;;;;;0.00;0.00;;;;;;;;;;5090101;28;20123;-58
2022/05/25 01:30:18;;;;;;;0.00;0.00;;;;;;;;;;5088782;28;20027;-58
2022/05/25 01:32:43;;;;;;;0.00;0.00;;;;;;;;;;5090070;28;20026;-58
2022/05/25 01:35:18;;;;;;;0.00;0.00;;;;;;;;;;5090033;28;20023;-58
2022/05/25 01:37:43;;;;;;;0.00;0.00;;;;;;;;;;5090488;28;20094;-58
2022/05/25 01:40:11;;;;;;;0.00;0.00;;;;;;;;;;5089564;28;20512;-59
2022/05/25 01:42:40;;;;;;;0.00;0.00;;;;;;;;;;5089645;28;20396;-57
2022/05/25 01:45:07;;;;;;;0.00;0.00;;;;;;;;;;5089686;28;20024;-58
2022/05/25 01:47:33;;;;;;;0.00;0.00;;;;;;;;;;5089164;28;20016;-59
2022/05/25 01:50:04;;;;;;;0.00;0.00;;;;;;;;;;5089767;28;20143;-59
2022/05/25 01:52:33;;;;;;;0.00;0.00;;;;;;;;;;5088961;28;20472;-60
2022/05/25 01:55:00;;;;;;;0.00;0.00;;;;;;;;;;5089104;28;20020;-58
2022/05/25 01:57:27;;;;;;;0.00;0.00;;;;;;;;;;5088309;28;20119;-58
2022/05/25 01:59:52;;;;;;;0.00;0.00;;;;;;;;;;5088570;28;20077;-58
2022/05/25 02:05:04;;;;;;;0.00;0.00;;;;;;;;;;5089630;28;20023;-59
2022/05/25 02:07:32;;;;;;;0.00;0.00;;;;;;;;;;5078410;28;20091;-60
2022/05/25 02:10:10;;;;;;;0.00;0.00;;;;;;;;;;5066817;28;20048;-58
2022/05/25 02:12:54;;;;;;;0.00;0.00;;;;;;;;;;5065046;28;20055;-58
2022/05/25 02:15:52;;;;;;;0.00;0.00;;;;;;;;;;5068285;28;20024;-57
2022/05/25 02:18:40;;;;;;;0.00;0.00;;;;;;;;;;5034693;28;20074;-59
2022/05/25 02:21:20;;;;;;;0.00;0.00;;;;;;;;;;5041686;28;20041;-59
2022/05/25 02:24:04;;;;;;;0.00;0.00;;;;;;;;;;5069060;28;20524;-58
2022/05/25 02:26:31;;;;;;;0.00;0.00;;;;;;;;;;5065746;28;20024;-59
2022/05/25 02:29:08;;;;;;;0.00;0.00;;;;;;;;;;5066355;28;20020;-59
2022/05/25 02:31:36;;;;;;;0.00;0.00;;;;;;;;;;5065821;28;20035;-58
2022/05/25 02:34:02;;;;;;;0.00;0.00;;;;;;;;;;5065182;28;20020;-59
2022/05/25 02:36:29;;;;;;;0.00;0.00;;;;;;;;;;5061832;28;20449;-58
2022/05/25 02:38:54;;;;;;;0.00;0.00;;;;;;;;;;5042209;28;20028;-59
2022/05/25 02:41:30;;;;;;;0.00;0.00;;;;;;;;;;5067335;28;20028;-59
2022/05/25 02:43:56;;;;;;;0.00;0.00;;;;;;;;;;5068570;28;20028;-58
2022/05/25 02:46:21;;;;;;;0.10;0.10;;;;;;;;;;5049959;28;20024;-60
2022/05/25 02:48:46;;;;;;;0.00;0.00;;;;;;;;;;5067458;28;20035;-58
2022/05/25 02:51:11;;;;;;;0.00;0.00;;;;;;;;;;5068251;28;20020;-59
2022/05/25 02:53:36;;;;;;;0.00;0.00;;;;;;;;;;5067160;28;20062;-59
2022/05/25 02:56:02;;;;;;;0.00;0.00;;;;;;;;;;5067949;28;20139;-59
2022/05/25 02:58:28;;;;;;;0.00;0.00;;;;;;;;;;5066408;28;20445;-57
2022/05/25 03:00:56;;;;;;;0.00;0.00;;;;;;;;;;5069078;28;20618;-59
2022/05/25 03:03:21;;;;;;;0.00;0.00;;;;;;;;;;5067322;28;20063;-58
2022/05/25 03:05:46;;;;;;;0.00;0.00;;;;;;;;;;5067989;28;20063;-60
2022/05/25 03:08:12;;;;;;;0.00;0.00;;;;;;;;;;5081582;28;20032;-59
2022/05/25 03:10:37;;;;;;;0.00;0.00;;;;;;;;;;5087706;28;20024;-59
2022/05/25 03:13:07;;;;;;;0.00;0.00;;;;;;;;;;5088307;28;20072;-59
2022/05/25 03:15:32;;;;;;;0.00;0.00;;;;;;;;;;5088219;28;20031;-60
2022/05/25 03:17:57;;;;;;;0.00;0.00;;;;;;;;;;5087564;28;20028;-59
2022/05/25 03:20:22;;;;;;;0.00;0.00;;;;;;;;;;5087861;28;20070;-60
2022/05/25 03:22:48;;;;;;;0.00;0.00;;;;;;;;;;5070798;28;20020;-59
2022/05/25 03:25:13;;;;;;;0.00;0.00;;;;;;;;;;5087966;28;20036;-60
2022/05/25 03:27:39;;;;;;;0.00;0.00;;;;;;;;;;5086645;28;20020;-59
2022/05/25 03:30:05;;;;;;;0.00;0.00;;;;;;;;;;5088243;28;20027;-59
2022/05/25 03:32:31;;;;;;;0.00;0.00;;;;;;;;;;5087734;28;20448;-59
2022/05/25 03:34:57;;;;;;;0.00;0.00;;;;;;;;;;5087456;28;20077;-58
2022/05/25 03:37:22;;;;;;;0.00;0.00;;;;;;;;;;5087311;28;20016;-58
2022/05/25 03:39:48;;;;;;;0.00;0.00;;;;;;;;;;5087838;28;20020;-59
2022/05/25 03:42:14;;;;;;;0.00;0.00;;;;;;;;;;5088185;28;20028;-58
2022/05/25 03:44:39;;;;;;;0.00;0.00;;;;;;;;;;5087822;28;20456;-57
2022/05/25 03:47:04;;;;;;;0.00;0.00;;;;;;;;;;5087554;28;20016;-57
2022/05/25 03:49:30;;;;;;;0.00;0.00;;;;;;;;;;5087222;28;20029;-59
2022/05/25 03:51:55;;;;;;;0.00;0.00;;;;;;;;;;5087655;28;20528;-58
2022/05/25 03:54:20;;;;;;;0.00;0.00;;;;;;;;;;5086865;28;20555;-59
2022/05/25 03:56:45;;;;;;;0.00;0.00;;;;;;;;;;5086739;28;20514;-58
2022/05/25 03:59:10;;;;;;;0.00;0.00;;;;;;;;;;5087534;28;20055;-58
2022/05/25 04:01:36;;;;;;;0.00;0.00;;;;;;;;;;5087729;28;20039;-58
2022/05/25 04:04:02;;;;;;;0.00;0.00;;;;;;;;;;5087849;28;20016;-59
2022/05/25 04:06:27;;;;;;;0.00;0.00;;;;;;;;;;5087324;28;20047;-58
2022/05/25 04:08:52;;;;;;;0.00;0.00;;;;;;;;;;5086509;28;20441;-58
2022/05/25 04:11:18;;;;;;;0.00;0.00;;;;;;;;;;5087171;28;20036;-58
2022/05/25 04:13:43;;;;;;;0.00;0.00;;;;;;;;;;5087406;28;20115;-59
2022/05/25 04:16:08;;;;;;;0.00;0.00;;;;;;;;;;5088096;28;20028;-58
2022/05/25 04:18:34;;;;;;;0.00;0.00;;;;;;;;;;5090329;28;20024;-60
2022/05/25 04:20:59;;;;;;;0.00;0.00;;;;;;;;;;5090870;28;20036;-59
2022/05/25 04:23:26;;;;;;;0.00;0.00;;;;;;;;;;5089539;28;20020;-58
2022/05/25 04:25:53;;;;;;;0.00;0.00;;;;;;;;;;5090451;28;20024;-59
2022/05/25 04:28:18;;;;;;;0.00;0.00;;;;;;;;;;5090017;28;20032;-60
2022/05/25 04:30:43;;;;;;;0.00;0.00;;;;;;;;;;5091492;28;20028;-59
2022/05/25 04:33:08;;;;;;;0.00;0.00;;;;;;;;;;5091196;28;20047;-61
2022/05/25 04:35:33;;;;;;;0.00;0.00;;;;;;;;;;5090881;28;20673;-60
2022/05/25 04:37:59;;;;;;;0.00;0.00;;;;;;;;;;5090641;28;20547;-59
2022/05/25 04:40:27;;;;;;;0.00;0.00;;;;;;;;;;5089072;28;20115;-58
2022/05/25 04:42:52;;;;;;;0.00;0.00;;;;;;;;;;5090329;28;20012;-60
2022/05/25 04:45:18;;;;;;;0.00;0.00;;;;;;;;;;5090641;28;20024;-60
2022/05/25 04:47:44;;;;;;;0.00;0.00;;;;;;;;;;5090729;28;20020;-57
2022/05/25 04:50:10;;;;;;;0.00;0.00;;;;;;;;;;5091006;28;20028;-60
2022/05/25 04:52:36;;;;;;;0.00;0.00;;;;;;;;;;5089233;28;20023;-59
2022/05/25 04:55:01;;;;;;;0.00;0.00;;;;;;;;;;5090472;28;20384;-59
2022/05/25 04:57:27;;;;;;;0.00;0.00;;;;;;;;;;5090682;28;20023;-58
2022/05/25 05:00:00;;;;;;;0.10;0.10;;;;;;;;;;5092169;28;20137;-60
2022/05/25 05:02:25;;;;;;;0.00;0.00;;;;;;;;;;5090360;28;20354;-58
2022/05/25 05:04:51;;;;;;;0.00;0.00;;;;;;;;;;5090778;28;20023;-59
2022/05/25 05:07:16;;;;;;;0.00;0.00;;;;;;;;;;5089679;28;20042;-60
2022/05/25 05:09:43;;;;;;;0.00;0.00;;;;;;;;;;5090064;28;20358;-57
2022/05/25 05:12:09;;;;;;;0.00;0.00;;;;;;;;;;5090417;28;20032;-58
2022/05/25 05:14:34;;;;;;;0.00;0.00;;;;;;;;;;5090257;28;20388;-58
2022/05/25 05:17:00;;;;;;;0.22;0.22;;;;;;;;;;5090168;28;20107;-59
2022/05/25 05:19:25;;;;;;;0.00;0.00;;;;;;;;;;5089784;28;20040;-59
2022/05/25 05:21:51;;;;;;;0.00;0.00;;;;;;;;;;5088482;28;20047;-60
2022/05/25 05:24:17;;;;;;;0.00;0.00;;;;;;;;;;5091369;28;20016;-58
2022/05/25 05:26:42;;;;;;;0.00;0.00;;;;;;;;;;5087160;28;20011;-59
2022/05/25 05:29:07;;;;;;;0.00;0.00;;;;;;;;;;5086623;28;20043;-58
2022/05/25 05:31:33;;;;;;;0.00;0.00;;;;;;;;;;5089554;28;20028;-60
2022/05/25 05:33:58;;;;;;;0.00;0.00;;;;;;;;;;5089757;28;20135;-58
2022/05/25 05:36:27;;;;;;;0.00;0.00;;;;;;;;;;5089249;28;20035;-58
2022/05/25 05:39:03;;;;;;;0.00;0.00;;;;;;;;;;5089558;28;20012;-59
2022/05/25 05:41:31;;;;;;;0.38;0.38;;;;;;;;;;5088450;28;20282;-59
2022/05/25 05:43:57;;;;;;;0.40;0.40;;;;;;;;;;5088213;28;20099;-58
2022/05/25 05:46:22;;;;;;;0.00;0.00;;;;;;;;;;5088862;28;20123;-58
2022/05/25 05:48:48;;;;;;;0.43;0.43;;;;;;;;;;5089270;28;20070;-58
2022/05/25 05:51:13;;;;;;;0.00;0.00;;;;;;;;;;5088111;28;20531;-59
2022/05/25 05:53:40;;;;;;;0.00;0.00;;;;;;;;;;5088925;28;20032;-58
2022/05/25 05:56:06;;;;;;;0.00;0.00;;;;;;;;;;5087433;28;20020;-59
2022/05/25 05:58:31;;;;;;;0.00;0.00;;;;;;;;;;5088669;28;20115;-58
2022/05/25 06:00:56;;;;;;;0.00;0.00;;;;;;;;;;5069764;28;20020;-59
2022/05/25 06:03:22;;;;;;;0.00;0.00;;;;;;;;;;5088505;28;20020;-60
2022/05/25 06:05:47;;;;;;;0.03;0.03;;;;;;;;;;5089363;28;20587;-58
2022/05/25 06:08:21;;;;;;;0.00;0.00;;;;;;;;;;5089067;28;20131;-59
2022/05/25 06:10:46;;;;;;;0.00;0.00;;;;;;;;;;5084666;28;20496;-60
2022/05/25 06:13:12;;;;;;;0.00;0.00;;;;;;;;;;5084635;28;20035;-59
2022/05/25 06:21:07;;;;;;;0.00;0.00;;;;;;;;;;5084923;28;20233;-59
2022/05/25 06:23:33;;;;;;;0.00;0.00;;;;;;;;;;5087068;28;20124;-59
2022/05/25 06:25:58;;;;;;;0.00;0.00;;;;;;;;;;5087053;28;20098;-59
2022/05/25 06:28:23;;;;;;;0.00;0.00;;;;;;;;;;5087954;28;20066;-59
2022/05/25 06:30:49;;;;;;;0.00;0.00;;;;;;;;;;5088015;28;20791;-59
2022/05/25 06:33:14;;;;;;;0.00;0.00;;;;;;;;;;5088495;28;20035;-60
2022/05/25 06:35:39;;;;;;;0.00;0.00;;;;;;;;;;5087741;28;20066;-60
2022/05/25 06:38:05;;;;;;;0.28;0.15;;;;;;;;;;5088322;28;20388;-60
2022/05/25 06:40:30;;;;;;;0.10;0.10;;;;;;;;;;5087325;28;20110;-60
2022/05/25 06:42:56;;;;;;;0.00;0.00;;;;;;;;;;5087666;28;20051;-60
2022/05/25 06:45:22;;;;;;;0.00;0.00;;;;;;;;;;5086656;28;20465;-60
2022/05/25 06:47:47;;;;;;;0.00;0.00;;;;;;;;;;5086120;28;20019;-60
2022/05/25 06:50:12;;;;;;;0.00;0.00;;;;;;;;;;5087312;28;20141;-59
2022/05/25 06:52:37;;;;;;;0.00;0.00;;;;;;;;;;5083690;28;20058;-59
2022/05/25 06:55:04;;;;;;;0.00;0.00;;;;;;;;;;5086451;28;20194;-61
2022/05/25 06:57:29;;;;;;;0.00;0.00;;;;;;;;;;5068799;28;20387;-60
2022/05/25 06:59:55;;;;;;;0.00;0.00;;;;;;;;;;5087864;28;20200;-59
2022/05/25 07:02:20;;;;;;;0.00;0.00;;;;;;;;;;5069618;28;20094;-60
2022/05/25 07:04:45;;;;;;;0.00;0.00;;;;;;;;;;5066534;28;20659;-60
2022/05/25 07:07:10;;;;;;;0.00;0.00;;;;;;;;;;5086889;28;20063;-60
2022/05/25 07:09:39;;;;;;;0.00;0.00;;;;;;;;;;5087029;28;20020;-61
2022/05/25 07:12:04;;;;;;;0.00;0.00;;;;;;;;;;5087925;28;20019;-60
2022/05/25 07:14:29;;;;;;;0.00;0.00;;;;;;;;;;5087081;28;21791;-60
2022/05/25 07:16:55;;;;;;;0.00;0.00;;;;;;;;;;5086778;28;20465;-60
2022/05/25 07:19:21;;;;;;;0.00;0.00;;;;;;;;;;5087164;28;20270;-61
2022/05/25 07:21:46;;;;;;;0.10;0.10;;;;;;;;;;5086059;28;20042;-60
2022/05/25 07:24:11;;;;;;;0.00;0.00;;;;;;;;;;5080967;28;20828;-61
2022/05/25 07:26:37;;;;;;;0.00;0.00;;;;;;;;;;5079471;28;20334;-61
2022/05/25 07:29:03;;;;;;;0.00;0.00;;;;;;;;;;5086191;28;20265;-61
2022/05/25 07:31:31;;;;;;;0.00;0.00;;;;;;;;;;5086193;28;20028;-61
2022/05/25 07:34:01;;;;;;;0.00;0.00;;;;;;;;;;5086668;28;20864;-61
2022/05/25 07:36:27;;;;;;;0.00;0.00;;;;;;;;;;5086325;28;20450;-61
2022/05/25 07:38:54;;;;;;;0.00;0.00;;;;;;;;;;5087585;28;20103;-61
2022/05/25 07:41:20;;;;;;;0.00;0.00;;;;;;;;;;5088089;28;20472;-61
2022/05/25 07:43:47;;;;;;;0.00;0.00;;;;;;;;;;5082303;28;20024;-62
2022/05/25 07:46:12;;;;;;;1.65;1.55;;;;;;;;;;5087089;28;20774;-60
2022/05/25 07:48:37;;;;;;;0.00;0.00;;;;;;;;;;5087760;28;20070;-61
2022/05/25 07:51:04;;;;;;;0.00;0.00;;;;;;;;;;5086401;28;20266;-60
2022/05/25 07:56:14;;;;;;;0.38;0.38;;;;;;;;;;5092114;28;20114;-60
2022/05/25 07:58:39;;;;;;;0.00;0.00;;;;;;;;;;5091328;28;20099;-61
2022/05/25 08:01:15;;;;;;;0.00;0.00;;;;;;;;;;5091500;28;20517;-60
2022/05/25 08:06:25;;;;;;;0.00;0.00;;;;;;;;;;5090949;28;20112;-61
2022/05/25 08:08:51;;;;;;;0.00;0.00;;;;;;;;;;5087618;28;20177;-61
2022/05/25 08:11:17;;;;;;;0.00;0.00;;;;;;;;;;5089666;28;20528;-60
2022/05/25 08:13:45;;;;;;;0.00;0.00;;;;;;;;;;5090182;28;20024;-60
2022/05/25 08:16:11;;;;;;;0.00;0.00;;;;;;;;;;5091073;28;20030;-59
2022/05/25 08:18:36;;;;;;;0.00;0.00;;;;;;;;;;5090145;28;20107;-61
2022/05/25 08:21:01;;;;;;;0.00;0.00;;;;;;;;;;5090498;28;20035;-61
2022/05/25 08:23:27;;;;;;;0.10;0.10;;;;;;;;;;5088133;28;20016;-61
2022/05/25 08:25:52;;;;;;;0.00;0.00;;;;;;;;;;5069361;28;20035;-61
2022/05/25 08:28:17;;;;;;;0.00;0.00;;;;;;;;;;5087497;28;20028;-61
2022/05/25 08:30:45;;;;;;;0.00;0.00;;;;;;;;;;5087019;28;20024;-61
2022/05/25 08:33:11;;;;;;;0.00;0.00;;;;;;;;;;5087430;28;20108;-62
2022/05/25 08:35:36;;;;;;;0.00;0.00;;;;;;;;;;5087024;28;20373;-61
2022/05/25 08:38:02;;;;;;;0.10;0.10;;;;;;;;;;5088001;28;20016;-61
2022/05/25 08:40:29;;;;;;;0.00;0.00;;;;;;;;;;5090003;28;20024;-62
2022/05/25 08:43:00;;;;;;;0.00;0.00;;;;;;;;;;5073288;28;20028;-61
2022/05/25 08:45:33;;;;;;;0.00;0.00;;;;;;;;;;5088479;28;20019;-61
2022/05/25 08:47:59;;;;;;;0.00;0.00;;;;;;;;;;5087310;28;20012;-61
2022/05/25 08:50:25;;;;;;;0.00;0.00;;;;;;;;;;5089887;28;20062;-61
2022/05/25 08:52:54;;;;;;;1.10;1.00;;;;;;;;;;5089531;28;20035;-61
2022/05/25 08:55:32;;;;;;;0.00;0.00;;;;;;;;;;5090005;28;20031;-61
2022/05/25 08:57:57;;;;;;;0.00;0.00;;;;;;;;;;5090171;28;20067;-59
2022/05/25 09:00:23;;;;;;;0.00;0.00;;;;;;;;;;5089443;28;20581;-61
2022/05/25 09:02:52;;;;;;;0.00;0.00;;;;;;;;;;5088663;28;20036;-60
2022/05/25 09:05:34;;;;;;;0.00;0.00;;;;;;;;;;5089863;28;20048;-60
2022/05/25 09:08:21;;;;;;;0.00;0.00;;;;;;;;;;5090435;28;20467;-61
2022/05/25 09:10:51;;;;;;;0.00;0.00;;;;;;;;;;5090140;28;20020;-60
2022/05/25 09:13:23;;;;;;;0.00;0.00;;;;;;;;;;5089560;28;20553;-58
2022/05/25 09:18:37;;;;;;;0.00;0.00;;;;;;;;;;5085740;28;20093;-60
2022/05/25 09:21:03;;;;;;;0.00;0.00;;;;;;;;;;5086769;28;20565;-60
2022/05/25 09:23:29;;;;;;;0.00;0.00;;;;;;;;;;5085062;28;20028;-60
2022/05/25 09:25:54;;;;;;;0.10;0.10;;;;;;;;;;5086904;28;20039;-60
2022/05/25 09:28:21;;;;;;;0.00;0.00;;;;;;;;;;5086033;28;20028;-60
2022/05/25 09:30:48;;;;;;;0.00;0.00;;;;;;;;;;5068760;28;20024;-59
2022/05/25 09:33:16;;;;;;;0.00;0.00;;;;;;;;;;5085272;28;20111;-59
2022/05/25 09:35:44;;;;;;;0.00;0.00;;;;;;;;;;5081878;28;20081;-62
2022/05/25 09:38:27;;;;;;;0.00;0.00;;;;;;;;;;5084796;28;20691;-62
2022/05/25 09:40:52;;;;;;;0.00;0.00;;;;;;;;;;5082860;28;20081;-61
2022/05/25 09:43:20;;;;;;;0.00;0.00;;;;;;;;;;5086219;28;20032;-62
2022/05/25 09:45:47;;;;;;;0.00;0.00;;;;;;;;;;5083838;28;20754;-63
2022/05/25 09:48:28;;;;;;;0.00;0.00;;;;;;;;;;5084590;28;20487;-68
2022/05/25 09:50:59;;;;;;;0.00;0.00;;;;;;;;;;5085174;28;20142;-63
2022/05/25 09:53:25;;;;;;;0.00;0.00;;;;;;;;;;5083379;28;20515;-62
2022/05/25 09:55:59;;;;;;;0.00;0.00;;;;;;;;;;5084415;28;20482;-63
2022/05/25 09:58:28;;;;;;;0.00;0.00;;;;;;;;;;5089336;28;20015;-62
2022/05/25 10:00:53;;;;;;;0.25;0.25;;;;;;;;;;5088802;28;20027;-62
2022/05/25 10:03:25;;;;;;;0.10;0.10;;;;;;;;;;5087833;28;20024;-62
2022/05/25 10:05:50;;;;;;;0.00;0.00;;;;;;;;;;5087289;28;20522;-62
2022/05/25 10:08:22;;;;;;;0.00;0.00;;;;;;;;;;5087569;28;20048;-62
2022/05/25 10:10:55;;;;;;;0.57;0.00;;;;;;;;;;5086503;28;20680;-61
2022/05/25 10:13:21;;;;;;;0.00;0.00;;;;;;;;;;5088951;28;20156;-62
2022/05/25 10:15:51;;;;;;;0.00;0.00;;;;;;;;;;5087301;28;20062;-61
2022/05/25 10:18:16;;;;;;;3.85;0.22;;;;;;;;;;5088290;28;20019;-63
2022/05/25 10:20:42;;;;;;;0.20;0.20;;;;;;;;;;5080659;28;20036;-61
2022/05/25 10:23:09;;;;;;;0.00;0.00;;;;;;;;;;5085031;28;20019;-61
2022/05/25 10:25:37;;;;;;;0.00;0.00;;;;;;;;;;5078852;28;20278;-60
2022/05/25 10:28:07;;;;;;;0.05;0.05;;;;;;;;;;5087299;28;20099;-60
2022/05/25 10:39:20;;;;;;;0.20;0.20;;;;;;;;;;5085419;28;20064;-61
2022/05/25 10:42:04;;;;;;;0.00;0.00;;;;;;;;;;5087004;28;20027;-61
2022/05/25 10:44:34;;;;;;;0.38;0.00;;;;;;;;;;5068196;28;20481;-60
2022/05/25 10:47:00;;;;;;;0.05;0.03;;;;;;;;;;5087837;28;20023;-60
2022/05/25 10:49:38;;;;;;;0.00;0.00;;;;;;;;;;5087645;28;20028;-59
2022/05/25 10:52:09;;;;;;;0.00;0.00;;;;;;;;;;5088752;28;20055;-59
2022/05/25 10:54:46;;;;;;;0.00;0.00;;;;;;;;;;5087621;28;20085;-60
2022/05/25 10:57:14;;;;;;;0.00;0.00;;;;;;;;;;5089517;28;20536;-60
2022/05/25 10:59:57;;;;;;;0.00;0.00;;;;;;;;;;5087992;28;20027;-60
2022/05/25 11:02:28;;;;;;;0.00;0.00;;;;;;;;;;5087182;28;20028;-60
2022/05/25 11:05:07;;;;;;;0.08;0.08;;;;;;;;;;5087732;28;20528;-60
2022/05/25 11:07:32;;;;;;;0.00;0.00;;;;;;;;;;5085701;28;20032;-59
2022/05/25 11:10:07;;;;;;;0.00;0.00;;;;;;;;;;5087430;28;20401;-60
2022/05/25 11:12:51;;;;;;;0.20;0.00;;;;;;;;;;5087032;28;20034;-59
2022/05/25 11:15:16;;;;;;;0.00;0.00;;;;;;;;;;5087330;28;20031;-60
2022/05/25 11:17:54;;;;;;;0.00;0.00;;;;;;;;;;5088064;28;20028;-59
2022/05/25 11:20:19;;;;;;;0.00;0.00;;;;;;;;;;5088045;28;20262;-60
2022/05/25 11:23:17;;;;;;;0.00;0.00;;;;;;;;;;5087588;28;20028;-60
2022/05/25 11:25:57;;;;;;;0.00;0.00;;;;;;;;;;5044063;28;20266;-60
2022/05/25 11:28:26;;;;;;;0.35;0.35;;;;;;;;;;5087593;28;20418;-59
2022/05/25 11:31:06;;;;;;;0.00;0.00;;;;;;;;;;5087720;28;20020;-59
2022/05/25 11:33:51;;;;;;;0.00;0.00;;;;;;;;;;5069219;28;20043;-59
2022/05/25 11:36:28;;;;;;;0.00;0.00;;;;;;;;;;5066662;28;20020;-59
2022/05/25 11:39:22;;;;;;;0.00;0.00;;;;;;;;;;5086840;28;20136;-60
2022/05/25 11:41:53;;;;;;;0.00;0.00;;;;;;;;;;5086925;28;20075;-60
2022/05/25 11:44:33;;;;;;;0.03;0.03;;;;;;;;;;5086378;28;20074;-61
2022/05/25 11:47:07;;;;;;;0.00;0.00;;;;;;;;;;5087246;28;20020;-60
2022/05/25 11:49:32;;;;;;;0.00;0.00;;;;;;;;;;5087622;28;20107;-60
2022/05/25 11:51:57;;;;;;;0.00;0.00;;;;;;;;;;5087655;28;20433;-59
2022/05/25 11:54:41;;;;;;;0.00;0.00;;;;;;;;;;5087156;28;20024;-60
2022/05/25 11:57:06;;;;;;;0.00;0.00;;;;;;;;;;5086872;28;20304;-59
2022/05/25 11:59:31;;;;;;;0.00;0.00;;;;;;;;;;5086459;28;20535;-60
2022/05/25 12:02:09;;;;;;;0.00;0.00;;;;;;;;;;5087343;28;20107;-60
2022/05/25 12:04:43;;;;;;;0.00;0.00;;;;;;;;;;5086394;28;20561;-58
2022/05/25 12:07:08;;;;;;;0.00;0.00;;;;;;;;;;5086633;28;20047;-59
2022/05/25 12:09:47;;;;;;;0.00;0.00;;;;;;;;;;5086903;28;20031;-59
2022/05/25 12:12:31;;;;;;;0.00;0.00;;;;;;;;;;5087062;28;20294;-61
2022/05/25 12:14:57;;;;;;;0.00;0.00;;;;;;;;;;5086351;28;20063;-60
2022/05/25 12:17:41;;;;;;;0.00;0.00;;;;;;;;;;5087579;28;20052;-60
2022/05/25 12:20:09;;;;;;;0.00;0.00;;;;;;;;;;5086980;28;20059;-59
2022/05/25 12:22:34;;;;;;;0.00;0.00;;;;;;;;;;5086177;28;20027;-59
2022/05/25 12:25:10;;;;;;;0.00;0.00;;;;;;;;;;5087375;28;20016;-59
2022/05/25 12:27:42;;;;;;;0.00;0.00;;;;;;;;;;5086931;28;20526;-60
2022/05/25 12:30:13;;;;;;;0.00;0.00;;;;;;;;;;5086838;28;20069;-60
2022/05/25 12:32:38;;;;;;;0.00;0.00;;;;;;;;;;5087082;28;20020;-59
2022/05/25 12:35:06;;;;;;;0.03;0.03;;;;;;;;;;5087017;28;20039;-60
2022/05/25 12:37:39;;;;;;;0.00;0.00;;;;;;;;;;5086980;28;20033;-59
2022/05/25 12:40:06;;;;;;;0.00;0.00;;;;;;;;;;5091537;28;20103;-60
2022/05/25 12:42:33;;;;;;;0.00;0.00;;;;;;;;;;5091121;28;20525;-60
2022/05/25 12:50:49;;;;;;;0.00;0.00;;;;;;;;;;5088573;28;20452;-60
2022/05/25 12:53:32;;;;;;;0.00;0.00;;;;;;;;;;5090155;28;20093;-60
2022/05/25 12:55:57;;;;;;;0.00;0.00;;;;;;;;;;5089120;28;20008;-60
2022/05/25 12:58:33;;;;;;;0.10;0.10;;;;;;;;;;5089755;28;20022;-60
2022/05/25 13:01:03;;;;;;;0.00;0.00;;;;;;;;;;5091359;28;20452;-60
2022/05/25 13:03:43;;;;;;;0.00;0.00;;;;;;;;;;5089657;28;20030;-60
2022/05/25 13:06:09;;;;;;;0.00;0.00;;;;;;;;;;5090795;28;20481;-60
2022/05/25 13:08:47;;;;;;;0.00;0.00;;;;;;;;;;5090154;28;20553;-59
2022/05/25 13:11:32;;;;;;;0.00;0.00;;;;;;;;;;5089574;28;20049;-60
2022/05/25 13:14:02;;;;;;;0.00;0.00;;;;;;;;;;5090308;28;20376;-59
2022/05/25 13:16:44;;;;;;;0.00;0.00;;;;;;;;;;5089588;28;20042;-60
2022/05/25 13:19:28;;;;;;;0.00;0.00;;;;;;;;;;5090546;28;20023;-62
2022/05/25 13:22:02;;;;;;;0.00;0.00;;;;;;;;;;5088410;28;20028;-61
2022/05/25 13:24:46;;;;;;;0.00;0.00;;;;;;;;;;5090647;28;20468;-61
2022/05/25 13:27:14;;;;;;;0.00;0.00;;;;;;;;;;5087152;28;20027;-61
2022/05/25 13:29:58;;;;;;;0.00;0.00;;;;;;;;;;5089446;28;20028;-61
2022/05/25 13:32:33;;;;;;;0.00;0.00;;;;;;;;;;5088850;28;20389;-61
2022/05/25 13:35:01;;;;;;;0.00;0.00;;;;;;;;;;5090223;28;20081;-60
2022/05/25 13:37:30;;;;;;;0.10;0.10;;;;;;;;;;5090097;28;20100;-61
2022/05/25 13:39:56;;;;;;;0.00;0.00;;;;;;;;;;5089449;28;20036;-61
2022/05/25 13:42:21;;;;;;;0.00;0.00;;;;;;;;;;5089667;28;20031;-61
2022/05/25 13:44:48;;;;;;;0.00;0.00;;;;;;;;;;5089589;28;20031;-61
2022/05/25 13:47:21;;;;;;;0.52;0.52;;;;;;;;;;5089625;28;20444;-59
2022/05/25 13:49:49;;;;;;;0.00;0.00;;;;;;;;;;5088763;28;20032;-60
2022/05/25 13:52:14;;;;;;;0.00;0.00;;;;;;;;;;5071222;28;20035;-59
2022/05/25 13:54:40;;;;;;;0.00;0.00;;;;;;;;;;5087567;28;20020;-59
2022/05/25 13:57:07;;;;;;;0.00;0.00;;;;;;;;;;5089141;28;20393;-58
2022/05/25 13:59:34;;;;;;;0.00;0.00;;;;;;;;;;5070894;28;20034;-60
2022/05/25 14:02:15;;;;;;;0.00;0.00;;;;;;;;;;5088884;28;20023;-60
2022/05/25 14:04:40;;;;;;;0.00;0.00;;;;;;;;;;5088767;28;20024;-60
2022/05/25 14:07:06;;;;;;;0.00;0.00;;;;;;;;;;5089163;28;20135;-59
2022/05/25 14:12:20;;;;;;;0.28;0.28;;;;;;;;;;5088786;28;20035;-59
2022/05/25 14:14:53;;;;;;;0.00;0.00;;;;;;;;;;5088812;28;20027;-60
2022/05/25 14:17:20;;;;;;;0.00;0.00;;;;;;;;;;5089102;28;20506;-59
2022/05/25 14:19:47;;;;;;;0.00;0.00;;;;;;;;;;5087761;28;20081;-60
2022/05/25 14:22:12;;;;;;;0.00;0.00;;;;;;;;;;5089479;28;20031;-60
2022/05/25 14:24:39;;;;;;;0.00;0.00;;;;;;;;;;5087399;28;20012;-60
2022/05/25 14:27:17;;;;;;;0.00;0.00;;;;;;;;;;5087984;28;20499;-60
2022/05/25 14:29:43;;;;;;;0.00;0.00;;;;;;;;;;5087464;28;20065;-61
2022/05/25 14:32:12;;;;;;;0.00;0.00;;;;;;;;;;5089231;28;20764;-60
2022/05/25 14:34:39;;;;;;;0.00;0.00;;;;;;;;;;5088620;28;20028;-60
2022/05/25 14:37:05;;;;;;;0.00;0.00;;;;;;;;;;5089088;28;20082;-60
2022/05/25 14:39:36;;;;;;;0.00;0.00;;;;;;;;;;5089230;28;20024;-61
2022/05/25 14:42:07;;;;;;;0.00;0.00;;;;;;;;;;5088383;28;20468;-61
2022/05/25 14:44:40;;;;;;;0.00;0.00;;;;;;;;;;5089156;28;20028;-62
2022/05/25 14:47:10;;;;;;;0.00;0.00;;;;;;;;;;5088817;28;20024;-60
2022/05/25 14:49:35;;;;;;;0.00;0.00;;;;;;;;;;5088711;28;20019;-61
2022/05/25 14:52:01;;;;;;;0.10;0.05;;;;;;;;;;5088562;28;20518;-61
2022/05/25 14:54:26;;;;;;;0.00;0.00;;;;;;;;;;5088176;28;20039;-59
2022/05/25 14:56:53;;;;;;;0.00;0.00;;;;;;;;;;5087963;28;20028;-59
2022/05/25 14:59:34;;;;;;;0.00;0.00;;;;;;;;;;5087777;28;20032;-60
2022/05/25 15:01:59;;;;;;;0.00;0.00;;;;;;;;;;5087391;28;20365;-60
2022/05/25 15:04:30;;;;;;;0.00;0.00;;;;;;;;;;5088490;28;20047;-60
2022/05/25 15:06:56;;;;;;;0.00;0.00;;;;;;;;;;5087006;28;20034;-60
2022/05/25 15:09:27;;;;;;;0.63;0.63;;;;;;;;;;5088428;28;20111;-60
2022/05/25 15:12:12;;;;;;;0.00;0.00;;;;;;;;;;5087331;28;20106;-61
2022/05/25 15:20:18;;;;;;;0.00;0.00;;;;;;;;;;5088714;28;20515;-60
2022/05/25 15:22:45;;;;;;;0.00;0.00;;;;;;;;;;5086189;28;20035;-60
2022/05/25 15:25:11;;;;;;;0.00;0.00;;;;;;;;;;5088101;28;20091;-60
2022/05/25 15:27:39;;;;;;;0.00;0.00;;;;;;;;;;5086866;28;20396;-60
2022/05/25 15:30:20;;;;;;;0.00;0.00;;;;;;;;;;5088410;28;20038;-59
2022/05/25 15:32:45;;;;;;;0.00;0.00;;;;;;;;;;5088361;28;20035;-60